Главная страница
METAR-TAF:

METAR-TAF

Аэропорты :

Hazleton, Пенсильвания, США

широта: 40-59-12N, долгота: 075-59-42W, высота над уровнем моря: 489 м

Текущие метеонаблюдения

Эта сводка был подготовлена 15 минут назад, в 20:55 UTC
Ветер 3 Узел от северо-западный
Температура 14°C
Влажность 24%
Давление 1028 hPa
Видимость: 16.1 км
ясное небо

METAR: KHZL 192055Z AUTO 32003KT 10SM CLR 14/M06 A3035 RMK AO2

Время: 17:10 (21:10 UTC)


TAF: отсутствует

Метеонаблюдения и прогнозы для более 4000 аэропортов (сводки METAR и TAF).

Имеющиеся станции представлены на карте желтыми и красными точками.

Чтобы увидеть название станции, наведите на нее мышь.

Затем щелкните, чтобы увидеть метеонаблюдения и метеопрогнозы.

Управление картой: чтобы увеличить масштаб, щелкните зеленые кнопки с черным крестиком; чтобы уменьшить масштаб, щелкните зеленую кнопку с тире; для просмотра соседних карт щелкайте зеленые стрелки.


METAR-TAF: